HTDA Airport Informations

Runway Information
Runway 05 Length 9843 ft width 151 ft
Elevation 173 ft Threshold ft Heading 45
Runway 23 Length 9843 ft Width 151 ft
Elevation 161 ft Threshold ft Heading 225
Runway 14 Length 3280 ft width 98 ft
Elevation 182 ft Threshold ft Heading 135
Runway 32 Length 3280 ft Width 98 ft
Elevation 169 ft Threshold ft Heading 315
Airport Frequencies
Type ACC Name CON Frequency 119.3 MHZ
Type APP Name APP Frequency 119.6 MHZ
Type TWR Name TWR Frequency 118.3 MHZ
Airport Navaids
Type NDB Name Dar Es Salaam Frequency 273 KHZ
Type NDB Name Dar Es Salaam Frequency 361 KHZ
Type NDB Name Dar Es Salaam Frequency 283 KHZ
Type VOR-DME Name Dar Es Salaam Frequency 112700 KHZ
Airport Weather Information & NOTAM
ADDS - METARS form results

(1306 UTC 14 August 2022)
Data provider http://aviationweather.gov/metar/data/
 
Forecast for: HTDA (DAR ES SALAAM AR, TZ)
Text: TAF HTDA 141100Z 1412/1518 10010KT 9999 SCT020
Forecast period: 1200 UTC 14 August 2022 to 1800 UTC 15 August 2022
Forecast type: FROM: standard forecast or significant change
Winds: from the E (100 degrees) at 12 MPH (10 knots; 5.1 m/s)
Visibility: 6 or more miles (10+ km)
Ceiling: at least 12,000 feet AGL
Clouds: scattered clouds at 2000 feet AGL
Weather: no significant weather forecast for this period